Time;durP1;ratioP1;P1;durP2;ratioP2;P2;SDS_P1;SDS_P2;PMS_P1;PMS_P2;Temp;Humidity;BMP_temperature;BMP_pressure;BME280_temperature;BME280_humidity;BME280_pressure;Samples;Min_cycle;Max_cycle;Signal;HPM_P1;HPM_P2
2023/07/10 00:02:25;;;;;;;5.30;3.10;;;27.60;99.90;;;;;;1834933;77;21095;-84
2023/07/10 00:04:57;;;;;;;8.75;4.30;;;27.70;99.90;;;;;;1825258;77;21502;-82
2023/07/10 00:07:31;;;;;;;11.10;5.75;;;27.70;99.90;;;;;;1786157;79;21656;-83
2023/07/10 00:10:04;;;;;;;7.17;4.22;;;27.70;99.90;;;;;;1828195;77;21235;-82
2023/07/10 00:12:49;;;;;;;5.42;3.67;;;27.70;99.90;;;;;;1815920;77;21166;-81
2023/07/10 00:15:40;;;;;;;5.97;3.20;;;27.70;99.90;;;;;;1806797;78;21169;-84
2023/07/10 00:18:19;;;;;;;6.65;3.08;;;27.70;99.90;;;;;;1789908;79;21149;-81
2023/07/10 00:20:58;;;;;;;8.38;3.37;;;27.70;99.90;;;;;;1814058;78;21096;-84
2023/07/10 00:23:37;;;;;;;5.33;2.95;;;27.70;99.90;;;;;;1820050;78;21095;-79
2023/07/10 00:26:27;;;;;;;7.22;2.83;;;27.70;99.90;;;;;;1820700;78;21095;-83
2023/07/10 00:29:04;;;;;;;6.08;2.90;;;27.80;99.90;;;;;;1821385;77;21124;-86
2023/07/10 00:31:39;;;;;;;6.40;3.12;;;27.80;99.90;;;;;;1832164;77;21490;-83
2023/07/10 00:34:16;;;;;;;;;;;27.90;99.90;;;;;;1832008;77;21683;-81
2023/07/10 00:36:53;;;;;;;8.78;3.95;;;27.90;99.90;;;;;;1827443;78;20134;-83
2023/07/10 00:39:28;;;;;;;9.78;3.15;;;27.90;99.90;;;;;;1793623;78;21091;-82
2023/07/10 00:42:07;;;;;;;5.20;3.08;;;28.00;99.90;;;;;;1804523;78;21142;-80
2023/07/10 00:44:53;;;;;;;;;;;;;;;;;;;;;
2023/07/10 00:47:38;;;;;;;8.88;3.30;;;28.10;99.90;;;;;;1820082;78;21184;-68
2023/07/10 00:50:18;;;;;;;8.00;4.47;;;28.10;99.90;;;;;;1803441;79;21635;-66
2023/07/10 00:52:53;;;;;;;6.75;3.08;;;28.10;99.90;;;;;;1824496;77;21151;-66
2023/07/10 00:55:35;;;;;;;7.62;3.33;;;28.20;99.90;;;;;;1826514;77;21247;-68
2023/07/10 00:58:25;;;;;;;8.58;2.92;;;28.20;99.90;;;;;;1848152;77;21549;-69
2023/07/10 01:01:04;;;;;;;8.35;3.80;;;28.30;99.90;;;;;;1831646;77;21159;-68
2023/07/10 01:03:40;;;;;;;7.28;2.87;;;28.30;99.90;;;;;;1822299;77;21254;-67
2023/07/10 01:06:22;;;;;;;8.35;3.35;;;28.30;99.90;;;;;;1831957;77;21117;-67
2023/07/10 01:08:58;;;;;;;7.20;2.58;;;28.40;99.90;;;;;;1826385;77;21430;-67
2023/07/10 01:11:31;;;;;;;12.15;3.30;;;28.50;99.90;;;;;;1802814;78;21096;-66
2023/07/10 01:14:08;;;;;;;11.57;3.02;;;28.50;99.90;;;;;;1821499;79;21111;-66
2023/07/10 01:16:40;;;;;;;46.95;7.28;;;28.60;99.90;;;;;;1811924;78;21093;-67
2023/07/10 01:19:16;;;;;;;455.07;42.50;;;28.60;99.90;;;;;;1819137;77;21084;-66
2023/07/10 01:21:51;;;;;;;11.08;2.35;;;28.60;99.90;;;;;;1790221;79;21161;-66
2023/07/10 01:24:25;;;;;;;4.15;1.80;;;28.60;99.90;;;;;;1793848;78;21161;-67
2023/07/10 01:26:59;;;;;;;12.93;5.35;;;28.50;99.90;;;;;;1829947;77;21173;-68
2023/07/10 01:29:41;;;;;;;20.30;4.78;;;28.50;99.90;;;;;;1827435;77;21141;-67
2023/07/10 01:32:17;;;;;;;14.58;4.12;;;28.40;99.90;;;;;;1825076;77;21139;-67
2023/07/10 01:34:56;;;;;;;4.17;1.98;;;28.50;99.90;;;;;;1783530;79;21209;-67
2023/07/10 01:37:30;;;;;;;7.33;2.75;;;28.60;99.90;;;;;;1795142;78;21229;-69
2023/07/10 01:40:04;;;;;;;19.07;6.95;;;28.80;99.90;;;;;;1812771;77;21124;-67
2023/07/10 01:42:42;;;;;;;3.77;2.00;;;28.90;99.90;;;;;;1805196;77;21933;-69
2023/07/10 01:45:18;;;;;;;6.37;2.15;;;29.10;99.90;;;;;;1803539;77;21214;-67
2023/07/10 01:47:52;;;;;;;5.60;2.50;;;29.20;99.90;;;;;;1814715;77;21204;-67
2023/07/10 01:50:24;;;;;;;4.00;2.15;;;29.40;99.90;;;;;;1803450;77;21181;-66
2023/07/10 01:53:00;;;;;;;7.28;2.52;;;29.40;99.60;;;;;;1808002;77;21088;-66
2023/07/10 01:55:38;;;;;;;13.70;2.65;;;29.40;99.70;;;;;;1820962;77;21181;-69
2023/07/10 01:58:11;;;;;;;12.23;3.17;;;29.50;99.60;;;;;;1822841;77;21472;-67
2023/07/10 02:00:44;;;;;;;14.43;4.78;;;29.40;99.70;;;;;;1812224;79;21182;-68
2023/07/10 02:03:17;;;;;;;16.70;4.78;;;29.40;99.60;;;;;;1809495;78;21099;-68
2023/07/10 02:05:49;;;;;;;9.38;4.15;;;29.50;99.10;;;;;;1805185;78;21099;-66
2023/07/10 02:08:21;;;;;;;14.10;5.25;;;29.60;99.10;;;;;;1830534;78;21123;-66
2023/07/10 02:10:55;;;;;;;29.37;6.80;;;29.70;98.60;;;;;;1807432;78;21220;-65
2023/07/10 02:13:31;;;;;;;10.00;2.55;;;29.80;98.70;;;;;;1823032;78;21068;-66
2023/07/10 02:16:05;;;;;;;5.30;1.92;;;29.90;98.90;;;;;;1810400;78;21162;-66
2023/07/10 02:18:46;;;;;;;6.33;1.92;;;30.00;98.70;;;;;;1829273;77;21142;-65
2023/07/10 02:21:20;;;;;;;4.67;1.77;;;30.00;98.40;;;;;;1838166;77;21221;-68
2023/07/10 02:23:55;;;;;;;3.12;1.90;;;30.10;97.60;;;;;;1805877;78;21114;-69
2023/07/10 02:26:29;;;;;;;5.83;2.00;;;30.10;97.90;;;;;;1819565;78;21240;-67
2023/07/10 02:29:02;;;;;;;20.40;4.53;;;30.20;97.90;;;;;;1845763;77;21169;-69
2023/07/10 02:31:36;;;;;;;19.67;4.47;;;30.20;96.50;;;;;;1811556;78;21169;-69
2023/07/10 02:34:12;;;;;;;18.82;3.77;;;30.20;96.80;;;;;;1799752;78;21084;-67
2023/07/10 02:36:47;;;;;;;5.12;1.70;;;30.20;96.70;;;;;;1836882;77;21111;-68
2023/07/10 02:39:23;;;;;;;8.08;2.12;;;30.10;97.10;;;;;;1798992;78;21113;-68
2023/07/10 02:41:55;;;;;;;7.00;1.98;;;30.00;96.50;;;;;;1833619;77;21057;-67
2023/07/10 02:44:34;;;;;;;5.78;1.57;;;29.90;96.90;;;;;;1799524;78;21142;-68
2023/07/10 02:47:07;;;;;;;8.75;2.15;;;30.00;96.60;;;;;;1828796;77;21201;-68
2023/07/10 02:49:41;;;;;;;4.53;1.80;;;30.10;96.90;;;;;;1794275;78;21255;-69
2023/07/10 02:52:13;;;;;;;7.00;2.00;;;30.20;96.40;;;;;;1794191;78;21550;-68
2023/07/10 02:54:46;;;;;;;27.52;3.98;;;30.40;96.50;;;;;;1816387;77;21172;-69
2023/07/10 02:57:19;;;;;;;8.23;2.22;;;30.50;96.50;;;;;;1789425;78;21212;-68
2023/07/10 02:59:51;;;;;;;17.80;4.17;;;30.70;96.50;;;;;;1819783;77;21159;-68
2023/07/10 03:02:24;;;;;;;4.78;2.27;;;30.80;96.40;;;;;;1802485;77;21620;-66
2023/07/10 03:04:58;;;;;;;17.55;3.20;;;30.90;96.00;;;;;;1806383;78;21184;-66
2023/07/10 03:07:30;;;;;;;4.75;2.10;;;31.10;96.30;;;;;;1794326;79;21123;-67
2023/07/10 03:10:03;;;;;;;20.20;3.10;;;31.10;96.00;;;;;;1806432;78;21170;-68
2023/07/10 03:12:40;;;;;;;70.52;12.00;;;31.10;95.60;;;;;;1796511;78;21568;-67
2023/07/10 03:15:16;;;;;;;40.40;7.50;;;31.20;95.70;;;;;;1833881;77;21573;-67
2023/07/10 03:17:51;;;;;;;7.35;3.30;;;31.20;95.60;;;;;;1790468;78;21111;-68
2023/07/10 03:20:24;;;;;;;27.48;6.85;;;31.30;95.50;;;;;;1834378;77;21181;-67
2023/07/10 03:22:58;;;;;;;6.67;2.15;;;31.40;95.30;;;;;;1799501;78;21115;-68
2023/07/10 03:25:31;;;;;;;3.45;1.47;;;31.60;95.20;;;;;;1817221;79;21679;-67
2023/07/10 03:28:03;;;;;;;8.18;2.75;;;31.60;94.70;;;;;;1789339;79;21118;-66
2023/07/10 03:30:40;;;;;;;14.28;5.22;;;31.70;94.90;;;;;;1794474;79;21216;-66
2023/07/10 03:33:15;;;;;;;9.35;5.62;;;31.70;95.10;;;;;;1801222;79;21198;-67
2023/07/10 03:35:53;;;;;;;22.32;7.55;;;31.70;94.50;;;;;;1816240;79;21096;-69
2023/07/10 03:38:30;;;;;;;25.65;4.80;;;31.70;95.30;;;;;;1796564;78;21123;-68
2023/07/10 03:41:05;;;;;;;12.88;2.55;;;31.70;95.10;;;;;;1791325;78;21131;-69
2023/07/10 03:43:38;;;;;;;10.35;3.02;;;31.90;94.10;;;;;;1831081;77;21158;-67
2023/07/10 03:46:11;;;;;;;35.10;5.65;;;31.90;94.30;;;;;;1791836;78;21087;-66
2023/07/10 03:48:48;;;;;;;19.40;3.27;;;32.00;94.40;;;;;;1792964;78;21166;-67
2023/07/10 03:51:21;;;;;;;4.47;1.50;;;32.00;94.10;;;;;;1814525;78;21206;-67
2023/07/10 03:53:52;;;;;;;4.87;1.45;;;32.00;94.50;;;;;;1840568;77;21631;-68
2023/07/10 03:56:24;;;;;;;8.60;1.60;;;32.00;95.00;;;;;;1792252;78;21092;-69
2023/07/10 03:58:57;;;;;;;4.53;1.72;;;32.10;94.60;;;;;;1798296;78;21591;-67
2023/07/10 04:01:29;;;;;;;6.53;2.10;;;32.10;94.00;;;;;;1837386;77;21103;-70
2023/07/10 04:04:04;;;;;;;;;;;32.00;94.60;;;;;;1835230;77;21529;-67
2023/07/10 04:06:37;;;;;;;3.80;1.52;;;32.00;95.40;;;;;;1835790;77;20544;-69
2023/07/10 04:09:10;;;;;;;3.75;1.70;;;32.00;94.30;;;;;;1835189;77;21118;-70
2023/07/10 04:11:43;;;;;;;7.20;1.90;;;31.90;94.20;;;;;;1837370;77;21174;-69
2023/07/10 04:14:16;;;;;;;21.07;4.00;;;31.90;94.30;;;;;;1843290;77;21127;-66
2023/07/10 04:16:56;;;;;;;9.23;2.85;;;31.90;94.60;;;;;;1838507;77;21179;-68
2023/07/10 04:19:30;;;;;;;3.67;1.30;;;32.00;94.30;;;;;;1837062;77;21122;-67
2023/07/10 04:22:07;;;;;;;6.00;2.50;;;32.00;93.70;;;;;;1842599;77;21219;-69
2023/07/10 04:24:40;;;;;;;10.38;2.00;;;32.00;93.80;;;;;;1837303;77;21148;-67
2023/07/10 04:27:24;;;;;;;14.87;3.30;;;31.90;93.30;;;;;;1829381;77;21131;-67
2023/07/10 04:30:01;;;;;;;4.58;1.82;;;31.90;93.80;;;;;;1809270;78;21170;-68
2023/07/10 04:32:36;;;;;;;;;;;31.90;93.70;;;;;;1842284;77;21198;-69
2023/07/10 04:35:10;;;;;;;5.72;2.00;;;32.00;94.90;;;;;;1821897;77;20211;-68
2023/07/10 04:37:44;;;;;;;2.72;1.35;;;32.10;93.90;;;;;;1801308;78;21220;-67
2023/07/10 04:40:18;;;;;;;3.72;1.57;;;32.10;93.70;;;;;;1802600;78;21179;-67
2023/07/10 04:42:54;;;;;;;;;;;32.20;93.40;;;;;;1847751;77;21163;-68
2023/07/10 04:45:27;;;;;;;3.42;1.50;;;32.30;94.80;;;;;;1831208;77;20405;-67
2023/07/10 04:48:00;;;;;;;3.87;1.42;;;32.40;93.90;;;;;;1845057;77;21097;-70
2023/07/10 04:50:34;;;;;;;7.92;2.02;;;32.50;93.30;;;;;;1854441;77;21105;-69
2023/07/10 04:53:06;;;;;;;4.70;1.72;;;32.50;93.50;;;;;;1844279;77;21101;-69
2023/07/10 04:55:40;;;;;;;11.57;2.62;;;32.60;93.70;;;;;;1834851;77;21084;-69
2023/07/10 04:58:16;;;;;;;5.72;2.02;;;32.60;93.60;;;;;;1842819;77;21065;-68
2023/07/10 05:00:57;;;;;;;3.15;1.20;;;32.60;93.40;;;;;;1844220;76;21249;-67
2023/07/10 05:03:31;;;;;;;4.08;1.70;;;32.50;93.40;;;;;;1838285;77;21126;-68
2023/07/10 05:06:04;;;;;;;4.92;1.80;;;32.50;94.30;;;;;;1826515;77;21127;-68
2023/07/10 05:08:40;;;;;;;4.65;1.82;;;32.40;93.70;;;;;;1827130;77;21087;-67
2023/07/10 05:11:15;;;;;;;8.75;2.00;;;32.30;93.40;;;;;;1832634;77;21122;-67
2023/07/10 05:13:51;;;;;;;9.38;1.87;;;32.40;93.90;;;;;;1838678;77;21091;-67
2023/07/10 05:16:25;;;;;;;3.77;1.47;;;32.40;94.30;;;;;;1830910;77;21063;-68
2023/07/10 05:18:59;;;;;;;4.42;2.08;;;32.40;93.70;;;;;;1831570;77;21168;-68
2023/07/10 05:21:34;;;;;;;2.87;1.67;;;32.50;93.50;;;;;;1834904;77;21117;-67
2023/07/10 05:24:07;;;;;;;13.95;4.70;;;32.50;93.40;;;;;;1811270;78;21119;-65
2023/07/10 05:26:43;;;;;;;3.77;1.60;;;32.50;93.40;;;;;;1843684;77;21043;-68
2023/07/10 05:29:17;;;;;;;3.20;1.32;;;32.40;93.60;;;;;;1850385;77;21501;-67
2023/07/10 05:31:50;;;;;;;2.42;1.52;;;32.40;94.00;;;;;;1823533;77;21272;-66
2023/07/10 05:34:23;;;;;;;3.08;1.40;;;32.40;93.80;;;;;;1819138;79;21119;-67
2023/07/10 05:36:59;;;;;;;6.03;1.62;;;32.40;93.40;;;;;;1815295;79;21170;-67
2023/07/10 05:39:36;;;;;;;4.40;1.40;;;32.50;93.60;;;;;;1814739;79;21553;-67
2023/07/10 05:42:11;;;;;;;4.17;1.55;;;32.60;93.20;;;;;;1789686;79;21186;-67
2023/07/10 05:44:45;;;;;;;8.00;2.65;;;32.60;93.30;;;;;;1828030;77;21628;-67
2023/07/10 05:47:19;;;;;;;11.63;2.65;;;32.60;93.00;;;;;;1786056;80;21392;-67
2023/07/10 05:50:08;;;;;;;6.87;1.52;;;32.50;93.40;;;;;;1790784;79;21578;-66
2023/07/10 05:52:58;;;;;;;8.03;2.20;;;32.40;93.10;;;;;;1813977;79;21099;-66
2023/07/10 05:55:30;;;;;;;6.00;1.87;;;32.40;93.60;;;;;;1817892;78;21107;-68
2023/07/10 05:58:02;;;;;;;4.70;2.60;;;32.40;93.80;;;;;;1817832;78;21095;-67
2023/07/10 06:00:38;;;;;;;5.47;2.40;;;32.40;94.10;;;;;;1816626;78;21082;-69
2023/07/10 06:03:13;;;;;;;11.10;2.67;;;32.40;94.40;;;;;;1814839;79;21180;-68
2023/07/10 06:06:00;;;;;;;14.70;2.42;;;32.40;94.00;;;;;;1824312;77;21102;-68
2023/07/10 06:08:33;;;;;;;20.30;3.20;;;32.50;93.40;;;;;;1821901;77;21162;-68
2023/07/10 06:11:06;;;;;;;4.33;1.47;;;32.70;93.30;;;;;;1816488;78;21603;-68
2023/07/10 06:13:55;;;;;;;3.05;1.07;;;32.70;93.90;;;;;;1815462;78;21341;-68
2023/07/10 06:16:30;;;;;;;3.72;1.40;;;32.70;92.30;;;;;;1838222;77;21072;-69
2023/07/10 06:19:09;;;;;;;12.07;2.85;;;32.70;93.10;;;;;;1822230;77;21064;-68
2023/07/10 06:21:47;;;;;;;4.90;1.37;;;32.50;92.80;;;;;;1840062;77;21157;-68
2023/07/10 06:24:29;;;;;;;10.05;2.30;;;32.40;93.00;;;;;;1803952;78;21088;-68
2023/07/10 06:27:05;;;;;;;14.78;2.70;;;32.40;93.60;;;;;;1804665;78;21192;-68
2023/07/10 06:29:54;;;;;;;5.22;2.10;;;32.20;93.50;;;;;;1842026;77;21125;-67
2023/07/10 06:32:36;;;;;;;17.23;2.70;;;32.20;93.80;;;;;;1795302;78;21175;-68
2023/07/10 06:35:17;;;;;;;4.70;1.60;;;32.30;93.80;;;;;;1791416;79;21233;-70
2023/07/10 06:37:54;;;;;;;2.30;1.00;;;32.40;94.00;;;;;;1790520;79;21107;-68
2023/07/10 06:40:30;;;;;;;2.60;1.20;;;32.30;93.30;;;;;;1822102;77;21106;-69
2023/07/10 06:43:05;;;;;;;6.78;1.62;;;32.40;93.50;;;;;;1831589;77;21143;-69
2023/07/10 06:45:39;;;;;;;5.75;2.20;;;32.40;93.30;;;;;;1821403;77;21126;-69
2023/07/10 06:48:15;;;;;;;4.85;3.27;;;32.40;93.30;;;;;;1794771;79;21153;-69
2023/07/10 06:50:50;;;;;;;2.02;1.00;;;32.40;93.20;;;;;;1825917;77;21530;-69
2023/07/10 06:53:25;;;;;;;3.30;1.20;;;32.40;93.10;;;;;;1827557;77;21117;-69
2023/07/10 06:56:02;;;;;;;5.30;1.55;;;32.40;93.50;;;;;;1835247;77;21051;-68
2023/07/10 06:58:39;;;;;;;25.05;3.83;;;32.30;93.50;;;;;;1839119;77;21174;-69
2023/07/10 07:01:12;;;;;;;78.33;10.53;;;32.20;93.40;;;;;;1830982;77;21098;-68
2023/07/10 07:03:49;;;;;;;27.55;3.92;;;32.20;93.70;;;;;;1834793;77;21165;-68
2023/07/10 07:06:28;;;;;;;6.55;2.02;;;32.20;93.50;;;;;;1798529;78;21147;-67
2023/07/10 07:09:01;;;;;;;48.65;7.37;;;32.20;93.10;;;;;;1800881;78;21175;-67
2023/07/10 07:11:39;;;;;;;14.55;2.35;;;32.30;93.20;;;;;;1805582;77;21073;-70
2023/07/10 07:14:15;;;;;;;11.38;2.80;;;32.30;93.30;;;;;;1797356;78;21181;-67
2023/07/10 07:16:49;;;;;;;4.00;1.37;;;32.40;92.90;;;;;;1832035;77;21153;-67
2023/07/10 07:19:38;;;;;;;12.05;2.65;;;32.40;92.70;;;;;;1787765;79;21217;-67
2023/07/10 07:22:20;;;;;;;7.95;2.67;;;32.40;93.20;;;;;;1802629;78;21463;-67
2023/07/10 07:24:56;;;;;;;44.70;7.85;;;32.40;93.00;;;;;;1825119;77;21156;-66
2023/07/10 07:27:34;;;;;;;19.92;3.45;;;32.40;92.90;;;;;;1794590;79;21100;-68
2023/07/10 07:30:08;;;;;;;9.63;1.62;;;32.50;92.90;;;;;;1827902;77;21169;-68
2023/07/10 07:32:45;;;;;;;6.83;2.47;;;32.50;92.80;;;;;;1822444;77;21224;-68
2023/07/10 07:35:20;;;;;;;5.42;2.20;;;32.50;93.10;;;;;;1807932;78;21076;-69
2023/07/10 07:37:54;;;;;;;5.37;1.47;;;32.50;93.40;;;;;;1797778;79;21487;-69
2023/07/10 07:40:44;;;;;;;7.47;2.30;;;32.50;93.30;;;;;;1820892;77;21579;-68
2023/07/10 07:43:20;;;;;;;4.15;1.22;;;32.50;93.40;;;;;;1793219;79;21126;-69
2023/07/10 07:45:55;;;;;;;2.52;1.32;;;32.50;93.40;;;;;;1805539;79;21194;-68
2023/07/10 07:48:36;;;;;;;7.55;1.52;;;32.50;93.60;;;;;;1819493;79;21552;-67
2023/07/10 07:51:26;;;;;;;18.17;3.90;;;32.50;93.10;;;;;;1816833;77;21134;-69
2023/07/10 07:54:04;;;;;;;2.70;1.02;;;32.60;93.10;;;;;;1821157;77;21209;-69
2023/07/10 07:56:38;;;;;;;3.20;1.10;;;32.50;92.60;;;;;;1795897;78;21544;-70
2023/07/10 07:59:21;;;;;;;6.12;1.57;;;32.60;92.90;;;;;;1811640;78;21198;-66
2023/07/10 08:02:03;;;;;;;2.17;1.10;;;32.60;93.20;;;;;;1842261;77;21165;-68
2023/07/10 08:04:41;;;;;;;2.45;0.90;;;32.80;92.50;;;;;;1788003;78;21132;-66
2023/07/10 08:07:19;;;;;;;3.10;1.10;;;32.80;91.90;;;;;;1794467;79;21108;-68
2023/07/10 08:09:51;;;;;;;5.35;1.55;;;32.90;92.30;;;;;;1793772;78;21484;-70
2023/07/10 08:12:41;;;;;;;7.12;1.30;;;32.90;91.90;;;;;;1816508;77;21086;-69
2023/07/10 08:15:14;;;;;;;8.30;2.17;;;33.00;93.30;;;;;;1815544;77;21055;-68
2023/07/10 08:17:48;;;;;;;4.35;1.00;;;32.90;91.70;;;;;;1797803;79;21258;-69
2023/07/10 08:20:22;;;;;;;2.87;0.90;;;32.90;91.80;;;;;;1796908;79;21501;-66
2023/07/10 08:23:00;;;;;;;5.55;1.42;;;32.90;92.00;;;;;;1831616;77;21185;-66
2023/07/10 08:25:33;;;;;;;2.50;1.15;;;32.80;91.70;;;;;;1833159;77;21155;-67
2023/07/10 08:28:19;;;;;;;6.47;1.90;;;32.80;91.70;;;;;;1824941;77;21103;-67
2023/07/10 08:30:52;;;;;;;7.40;1.47;;;32.80;92.80;;;;;;1838712;77;21099;-67
2023/07/10 08:33:26;;;;;;;4.17;1.50;;;32.70;93.30;;;;;;1835119;77;21131;-68
2023/07/10 08:36:05;;;;;;;2.87;1.30;;;32.60;93.60;;;;;;1835307;77;21173;-69
2023/07/10 08:38:46;;;;;;;3.80;1.67;;;32.60;94.00;;;;;;1829922;77;21636;-67
2023/07/10 08:41:20;;;;;;;7.03;2.50;;;32.60;93.70;;;;;;1828935;77;21170;-71
2023/07/10 08:43:58;;;;;;;4.87;3.00;;;32.60;93.70;;;;;;1822725;78;21067;-69
2023/07/10 08:46:33;;;;;;;;;;;32.60;93.60;;;;;;1814023;77;21209;-69
2023/07/10 08:49:14;;;;;;;3.72;2.72;;;32.60;93.80;;;;;;1802807;79;20149;-68
2023/07/10 08:51:55;;;;;;;3.02;1.85;;;32.60;93.90;;;;;;1822802;78;21128;-69
2023/07/10 08:54:29;;;;;;;2.83;1.60;;;32.60;93.70;;;;;;1829069;77;21127;-69
2023/07/10 08:57:18;;;;;;;2.92;1.37;;;32.60;93.50;;;;;;1838011;77;21503;-68
2023/07/10 09:00:06;;;;;;;4.60;1.75;;;32.70;93.40;;;;;;1843866;77;21082;-68
2023/07/10 09:02:48;;;;;;;4.12;1.35;;;32.60;93.50;;;;;;1818808;77;21490;-69
2023/07/10 09:05:27;;;;;;;3.20;1.30;;;32.60;93.70;;;;;;1822003;77;21169;-67
2023/07/10 09:08:08;;;;;;;2.33;1.20;;;32.60;93.70;;;;;;1822768;77;21181;-66
2023/07/10 09:10:51;;;;;;;6.50;1.65;;;32.60;93.50;;;;;;1816693;77;21745;-68
2023/07/10 09:13:42;;;;;;;3.67;1.40;;;32.60;93.70;;;;;;1807685;79;21108;-67
2023/07/10 09:16:20;;;;;;;5.53;1.30;;;32.60;93.40;;;;;;1816896;78;21142;-67
2023/07/10 09:19:07;;;;;;;3.75;1.50;;;32.60;93.60;;;;;;1820179;77;21597;-66
2023/07/10 09:21:44;;;;;;;4.25;1.70;;;32.60;93.60;;;;;;1826454;77;21169;-66
2023/07/10 09:24:33;;;;;;;4.33;1.40;;;32.60;93.50;;;;;;1827364;77;21165;-66
2023/07/10 09:27:14;;;;;;;4.92;1.45;;;32.50;93.40;;;;;;1820076;77;21149;-66
2023/07/10 09:29:49;;;;;;;2.42;1.20;;;32.50;93.30;;;;;;1819698;79;21087;-70
2023/07/10 09:32:23;;;;;;;2.27;1.00;;;32.50;93.30;;;;;;1824757;77;21131;-67
2023/07/10 09:35:01;;;;;;;2.55;1.17;;;32.50;93.30;;;;;;1821865;77;21217;-69
2023/07/10 09:37:44;;;;;;;3.55;1.60;;;32.60;93.60;;;;;;1795290;79;21086;-68
2023/07/10 09:40:39;;;;;;;5.60;1.90;;;32.60;93.40;;;;;;1818314;77;21567;-69
2023/07/10 09:43:23;;;;;;;4.42;1.70;;;32.60;93.00;;;;;;1787319;79;21576;-67
2023/07/10 09:45:59;;;;;;;6.83;1.50;;;32.60;92.30;;;;;;1826945;77;21570;-68
2023/07/10 09:48:40;;;;;;;5.90;1.50;;;32.60;92.30;;;;;;1828896;77;21252;-67
2023/07/10 09:51:13;;;;;;;4.05;1.57;;;32.70;92.10;;;;;;1820107;77;21182;-68
2023/07/10 09:53:59;;;;;;;5.67;1.60;;;32.70;92.10;;;;;;1816841;77;21592;-67
2023/07/10 09:56:42;;;;;;;7.70;1.85;;;32.70;91.60;;;;;;1820866;77;21162;-68
2023/07/10 09:59:21;;;;;;;6.40;1.20;;;32.70;91.70;;;;;;1789718;78;21135;-70
2023/07/10 10:02:01;;;;;;;3.62;1.10;;;32.70;91.10;;;;;;1817551;77;21258;-68
2023/07/10 10:04:56;;;;;;;3.12;1.55;;;32.70;91.60;;;;;;1813870;78;21222;-70
2023/07/10 10:07:42;;;;;;;2.83;1.55;;;32.70;91.50;;;;;;1817228;78;21088;-69
2023/07/10 10:10:20;;;;;;;2.80;1.20;;;32.60;91.70;;;;;;1791590;79;21173;-68
2023/07/10 10:13:19;;;;;;;10.98;1.77;;;32.60;92.00;;;;;;1803746;78;21096;-67
2023/07/10 10:16:03;;;;;;;4.10;1.72;;;32.50;92.30;;;;;;1822268;77;21059;-68
2023/07/10 10:18:56;;;;;;;6.25;2.47;;;32.50;91.80;;;;;;1782647;79;21126;-67
2023/07/10 10:21:46;;;;;;;5.80;1.30;;;32.40;91.70;;;;;;1789116;79;21146;-68
2023/07/10 10:24:19;;;;;;;6.55;1.47;;;32.40;92.00;;;;;;1794500;79;21474;-66
2023/07/10 10:27:19;;;;;;;3.05;1.60;;;32.50;92.20;;;;;;1833229;77;21110;-69
2023/07/10 10:30:10;;;;;;;3.52;1.80;;;32.40;92.10;;;;;;1819375;77;21096;-67
2023/07/10 10:33:01;;;;;;;18.80;2.50;;;32.50;92.10;;;;;;1822123;77;21162;-69
2023/07/10 10:35:51;;;;;;;4.62;1.80;;;32.40;92.00;;;;;;1814335;77;21190;-67
2023/07/10 10:38:52;;;;;;;7.97;2.30;;;32.40;92.20;;;;;;1834221;77;21208;-67
2023/07/10 10:41:41;;;;;;;3.90;1.77;;;32.40;92.20;;;;;;1806771;78;21099;-67
2023/07/10 10:44:35;;;;;;;4.53;1.80;;;32.40;91.90;;;;;;1783395;80;21170;-67
2023/07/10 10:47:38;;;;;;;5.70;2.12;;;32.40;92.10;;;;;;1831748;77;21634;-67
2023/07/10 10:50:28;;;;;;;;;;;32.40;92.00;;;;;;1794312;78;21526;-67
2023/07/10 10:53:15;;;;;;;7.60;2.70;;;32.30;92.60;;;;;;1803312;78;20197;-68
2023/07/10 10:56:12;;;;;;;4.22;2.20;;;32.30;92.20;;;;;;1835425;77;21126;-70
2023/07/10 10:58:47;;;;;;;3.50;1.70;;;32.30;92.10;;;;;;1805528;78;21098;-68
2023/07/10 11:01:48;;;;;;;9.78;2.95;;;32.30;92.20;;;;;;1799677;79;21211;-68
2023/07/10 11:04:39;;;;;;;3.42;1.20;;;32.30;92.30;;;;;;1844535;77;21217;-68
2023/07/10 11:07:17;;;;;;;2.45;1.20;;;32.20;92.60;;;;;;1838246;77;21466;-66
2023/07/10 11:10:02;;;;;;;6.78;1.70;;;32.10;92.70;;;;;;1828640;77;21140;-66
2023/07/10 11:12:37;;;;;;;2.30;1.00;;;32.10;92.80;;;;;;1829448;77;21095;-67
2023/07/10 11:15:16;;;;;;;5.35;1.10;;;32.00;92.80;;;;;;1833625;77;21148;-67
2023/07/10 11:18:05;;;;;;;4.05;1.35;;;32.00;92.90;;;;;;1797487;78;21105;-69
2023/07/10 11:20:51;;;;;;;5.15;1.67;;;32.00;93.00;;;;;;1799039;79;21347;-67
2023/07/10 11:23:42;;;;;;;4.17;2.00;;;32.00;92.90;;;;;;1845035;77;21205;-69
2023/07/10 11:26:31;;;;;;;4.55;1.92;;;31.90;92.90;;;;;;1858648;77;21196;-68
2023/07/10 11:29:31;;;;;;;4.22;2.02;;;31.90;93.00;;;;;;1820454;77;21137;-68
2023/07/10 11:32:20;;;;;;;4.75;2.52;;;31.90;93.10;;;;;;1840928;77;21572;-67
2023/07/10 11:34:57;;;;;;;4.55;2.20;;;31.80;93.40;;;;;;1827621;77;21166;-70
2023/07/10 11:37:53;;;;;;;4.62;2.47;;;31.80;93.80;;;;;;1832057;77;21096;-68
2023/07/10 11:40:35;;;;;;;4.72;2.60;;;31.80;94.00;;;;;;1828515;77;21105;-70
2023/07/10 11:43:30;;;;;;;4.95;2.77;;;31.80;94.20;;;;;;1828240;77;21272;-67
2023/07/10 11:46:08;;;;;;;7.85;3.20;;;31.70;94.30;;;;;;1822919;77;21087;-69
2023/07/10 11:48:47;;;;;;;5.78;4.00;;;31.70;94.50;;;;;;1830576;77;21605;-67
2023/07/10 11:51:35;;;;;;;6.50;3.40;;;31.70;94.60;;;;;;1795007;79;21121;-67
2023/07/10 11:54:17;;;;;;;7.05;3.20;;;31.60;94.70;;;;;;1793516;79;21159;-72
2023/07/10 11:57:18;;;;;;;7.50;3.15;;;31.60;94.90;;;;;;1799428;78;21127;-68
2023/07/10 11:59:56;;;;;;;4.95;2.77;;;31.50;95.10;;;;;;1789293;79;21530;-69
2023/07/10 12:02:44;;;;;;;6.95;2.62;;;31.50;95.20;;;;;;1793665;78;21151;-66
2023/07/10 12:05:32;;;;;;;6.15;2.83;;;31.50;95.40;;;;;;1816747;77;21223;-67
2023/07/10 12:08:13;;;;;;;5.45;2.65;;;31.50;95.60;;;;;;1786173;79;21142;-67
2023/07/10 12:10:50;;;;;;;7.22;3.10;;;31.40;95.80;;;;;;1801225;79;21143;-69
2023/07/10 12:13:35;;;;;;;4.55;2.72;;;31.40;95.90;;;;;;1797895;79;21068;-66
2023/07/10 12:16:20;;;;;;;5.20;3.08;;;31.40;96.00;;;;;;1819905;78;21498;-67
2023/07/10 12:19:06;;;;;;;4.33;2.62;;;31.40;96.10;;;;;;1820527;78;21099;-68
2023/07/10 12:21:39;;;;;;;6.25;2.87;;;31.30;96.20;;;;;;1798044;80;21142;-67
2023/07/10 12:24:28;;;;;;;5.03;2.98;;;31.30;96.70;;;;;;1821553;78;21185;-68
2023/07/10 12:27:05;;;;;;;4.85;2.60;;;31.30;96.40;;;;;;1787378;79;21147;-67
2023/07/10 12:29:39;;;;;;;6.75;3.15;;;31.30;96.50;;;;;;1795049;79;21099;-67
2023/07/10 12:32:16;;;;;;;6.33;2.98;;;31.20;96.60;;;;;;1828108;77;21561;-68
2023/07/10 12:34:51;;;;;;;6.37;3.60;;;31.20;96.70;;;;;;1822589;77;21083;-67
2023/07/10 12:37:26;;;;;;;;;;;31.20;96.90;;;;;;1786661;79;21119;-67
2023/07/10 12:40:01;;;;;;;9.40;3.85;;;31.20;96.90;;;;;;1813550;78;20435;-68
2023/07/10 12:42:38;;;;;;;8.60;3.52;;;31.20;97.10;;;;;;1810906;77;21090;-69
2023/07/10 12:45:39;;;;;;;9.03;4.70;;;31.10;97.20;;;;;;1812520;77;21165;-68
2023/07/10 12:48:14;;;;;;;7.33;4.53;;;31.10;97.30;;;;;;1817498;77;21182;-70
2023/07/10 12:50:50;;;;;;;9.33;4.87;;;31.00;97.30;;;;;;1803771;79;21070;-68
2023/07/10 12:53:37;;;;;;;12.73;5.47;;;31.00;97.40;;;;;;1810029;79;21609;-69
2023/07/10 12:56:34;;;;;;;9.23;5.97;;;31.00;97.40;;;;;;1795087;79;21561;-69
2023/07/10 12:59:31;;;;;;;11.18;6.12;;;31.00;97.60;;;;;;1824204;78;21146;-69
2023/07/10 13:02:21;;;;;;;10.40;5.80;;;31.00;97.70;;;;;;1792325;79;21115;-68
2023/07/10 13:05:02;;;;;;;7.92;5.20;;;31.00;97.70;;;;;;1802466;79;21244;-69
2023/07/10 13:07:54;;;;;;;7.92;4.58;;;31.00;97.70;;;;;;1820382;77;21186;-69
2023/07/10 13:10:45;;;;;;;8.33;4.90;;;30.90;97.80;;;;;;1831973;77;21102;-70
2023/07/10 13:13:37;;;;;;;6.80;4.05;;;30.90;97.90;;;;;;1814005;78;21151;-69
2023/07/10 13:16:17;;;;;;;5.83;3.62;;;30.90;98.00;;;;;;1827994;77;21196;-69
2023/07/10 13:18:53;;;;;;;9.03;3.77;;;30.90;98.00;;;;;;1809592;79;21116;-66
2023/07/10 13:21:28;;;;;;;6.67;3.47;;;30.90;98.10;;;;;;1841999;76;21165;-68
2023/07/10 13:24:18;;;;;;;5.47;3.40;;;30.90;98.10;;;;;;1784618;79;21532;-67
2023/07/10 13:26:53;;;;;;;6.42;3.50;;;30.90;98.20;;;;;;1842930;77;21502;-68
2023/07/10 13:29:27;;;;;;;6.15;3.62;;;30.80;98.20;;;;;;1832081;77;21199;-68
2023/07/10 13:32:17;;;;;;;8.75;3.52;;;30.80;98.30;;;;;;1841359;77;21308;-69
2023/07/10 13:34:50;;;;;;;8.28;4.05;;;30.80;98.20;;;;;;1808693;78;21645;-68
2023/07/10 13:37:26;;;;;;;8.28;4.78;;;30.70;98.10;;;;;;1800944;79;21165;-67
2023/07/10 13:40:09;;;;;;;8.18;4.87;;;30.80;98.20;;;;;;1805220;78;21111;-68
2023/07/10 13:42:47;;;;;;;7.75;4.30;;;30.80;98.20;;;;;;1797904;78;21094;-67
2023/07/10 13:45:21;;;;;;;7.42;4.37;;;30.80;98.20;;;;;;1804246;78;21576;-67
2023/07/10 13:47:56;;;;;;;8.10;4.93;;;30.80;98.20;;;;;;1799082;78;21569;-68
2023/07/10 13:50:31;;;;;;;9.23;4.53;;;30.80;98.20;;;;;;1788420;79;21445;-68